Flight Track Log - Related Links

Times and Time Zones

All times are in EDT time to prevent confusion due to time zone crossing. See the SWA279 flight status page for this flight to view local times or setup timezone preferences in your user account.

Time Position Orientation Groundspeed Altitude Reporting Facility
EDT Latitude Longitude Course Direction KTS MPH feet Rate Location/Type
Thu 04:07:47 PM 29.6544 -95.2917 310° West 150 173 1,200  Level Houston Center
Thu 04:09:18 PM 29.7022 -95.3583 310° West 220 253 3,900 2,612 Climbing Houston Center
Thu 04:10:14 PM 29.7611 -95.4231 316° Northwest 262 302 7,600 2,930 Climbing Houston Center
Thu 04:11:27 PM 29.8394 -95.5003 319° Northwest 313 360 10,200 2,336 Climbing Houston Center
Thu 04:12:25 PM 29.8544 -95.5753 283° West 292 336 12,700 2,800 Climbing Houston Center
Thu 04:13:27 PM 29.8669 -95.6644 279° West 285 328 15,800 1,839 Climbing Houston Center
Thu 04:14:29 PM 29.8797 -95.7681 278° West 339 390 16,500 1,790 Climbing Houston Center
Thu 04:15:31 PM 29.8981 -95.9081 279° West 371 427 19,500 2,323 Climbing Houston Center
Thu 04:16:33 PM 29.9144 -96.0353 278° West 386 444 21,300 1,694 Climbing Houston Center
Thu 04:17:35 PM 29.9306 -96.1617 278° West 399 459 23,000 1,488 Climbing Houston Center
Thu 04:18:38 PM 29.9417 -96.2878 276° West 398 458 24,400 1,728 Climbing Houston Center
Thu 04:19:40 PM 29.9475 -96.4133 273° West 396 456 26,600 1,935 Climbing Houston Center
Thu 04:20:42 PM 29.9550 -96.5375 274° West 391 450 28,400 1,839 Climbing Houston Center
Thu 04:21:44 PM 29.9808 -96.6825 282° West 393 452 30,400 1,790 Climbing Houston Center
Thu 04:22:46 PM 30.0064 -96.8008 284° West 386 444 32,100 1,694 Climbing Houston Center
Thu 04:23:48 PM 30.0303 -96.9164 283° West 375 432 33,900 1,536 Climbing Houston Center
Thu 04:24:51 PM 30.0536 -97.0297 283° West 368 423 35,300 1,008 Climbing Houston Center
Thu 04:25:53 PM 30.0761 -97.1419 283° West 363 418 36,000 339 Climbing Houston Center
Thu 04:26:55 PM 30.1044 -97.2750 284° West 362 417 36,000  Level Houston Center
Thu 04:27:57 PM 30.1278 -97.3886 283° West 363 418 36,000  Level Houston Center
Thu 04:28:59 PM 30.1508 -97.5028 283° West 360 414 36,000  Level Houston Center
Thu 04:30:01 PM 30.1733 -97.6150 283° West 355 409 36,000  Level Houston Center
Thu 04:31:03 PM 30.1956 -97.7294 283° West 359 413 36,000  Level Houston Center
Thu 04:32:06 PM 30.2186 -97.8428 283° West 358 412 36,000  Level Houston Center
Thu 04:33:08 PM 30.2450 -97.9758 283° West 354 407 36,000  Level Houston Center
Thu 04:34:10 PM 30.2678 -98.0900 283° West 361 415 36,000  Level Houston Center
Thu 04:35:13 PM 30.2897 -98.2028 283° West 361 415 36,000  Level Houston Center
Thu 04:36:14 PM 30.3117 -98.3156 283° West 357 411 36,000  Level Houston Center
Thu 04:37:16 PM 30.3347 -98.4297 283° West 359 413 36,000  Level Houston Center
Thu 04:38:19 PM 30.3550 -98.5414 282° West 353 406 36,000  Level Houston Center
Thu 04:39:21 PM 30.3783 -98.6578 283° West 358 412 36,000  Level Houston Center
Thu 04:40:23 PM 30.3992 -98.7686 282° West 357 411 36,000  Level Houston Center
Thu 04:41:25 PM 30.4256 -98.9000 283° West 357 411 36,000  Level Houston Center
Thu 04:42:27 PM 30.4472 -99.0128 283° West 356 410 36,000  Level Houston Center
Thu 04:43:29 PM 30.4703 -99.1281 283° West 357 411 36,000  Level Houston Center
Thu 04:44:33 PM 30.4964 -99.2381 285° West 355 409 36,000  Level Houston Center
Thu 04:45:34 PM 30.5200 -99.3483 284° West 354 407 36,000  Level Houston Center
Thu 04:46:36 PM 30.5436 -99.4583 284° West 353 406 36,000  Level Houston Center
Thu 04:47:38 PM 30.5664 -99.5681 284° West 351 404 36,000  Level Houston Center
Thu 04:48:40 PM 30.5942 -99.6981 284° West 347 399 36,000  Level Houston Center
Thu 04:49:42 PM 30.6181 -99.8067 284° West 347 399 36,000  Level Houston Center
Thu 04:50:44 PM 30.6406 -99.9144 284° West 346 398 36,000  Level Houston Center
Thu 04:51:46 PM 30.6636 -100.0211 284° West 344 396 36,000  Level Houston Center
Thu 04:52:49 PM 30.6856 -100.1292 283° West 344 396 36,000  Level Houston Center
Thu 04:53:51 PM 30.7117 -100.2569 283° West 342 394 36,000  Level Houston Center
Thu 04:54:53 PM 30.7342 -100.3647 284° West 347 399 36,000  Level Houston Center
Thu 04:55:55 PM 30.7578 -100.4728 284° West 350 403 36,000  Level Houston Center
Thu 04:56:57 PM 30.7792 -100.5789 283° West 346 398 36,000  Level Houston Center
Thu 04:57:59 PM 30.8011 -100.6861 283° West 345 397 36,000  Level Houston Center
Thu 04:59:01 PM 30.8275 -100.8139 284° West 345 397 36,000  Level Houston Center
Thu 05:00:04 PM 30.8489 -100.9208 283° West 342 394 36,000  Level Houston Center
Thu 05:01:06 PM 30.8700 -101.0264 283° West 337 388 36,000  Level Houston Center
Thu 05:02:08 PM 30.8903 -101.1344 282° West 342 394 36,000  Level Houston Center
Thu 05:03:10 PM 30.9142 -101.2378 285° West 335 386 36,000  Level Houston Center
Thu 05:04:12 PM 30.9358 -101.3483 283° West 336 387 36,000  Level Houston Center
Thu 05:04:32 PM 30.9417 -101.3906 279° West 337 388 36,000  Level Albuquerque Center
Thu 05:05:34 PM 30.9633 -101.4964 283° West 337 388 36,000  Level Albuquerque Center
Thu 05:06:36 PM 30.9836 -101.6031 283° West 337 388 36,000  Level Albuquerque Center
Thu 05:07:38 PM 31.0094 -101.7294 283° West 336 387 36,000  Level Albuquerque Center
Thu 05:08:40 PM 31.0300 -101.8333 283° West 333 383 36,000  Level Albuquerque Center
Thu 05:09:42 PM 31.0503 -101.9389 283° West 333 383 36,000  Level Albuquerque Center
Thu 05:10:44 PM 31.0703 -102.0447 282° West 335 386 36,000  Level Albuquerque Center
Thu 05:11:46 PM 31.0906 -102.1467 283° West 325 374 36,000  Level Albuquerque Center
Thu 05:12:48 PM 31.1108 -102.2497 283° West 325 374 36,000 532 Level Albuquerque Center
Thu 05:13:50 PM 31.1300 -102.3539 282° West 328 377 37,100 968 Climbing Albuquerque Center
Thu 05:14:52 PM 31.1542 -102.4794 283° West 330 380 38,000 435 Climbing Albuquerque Center
Thu 05:15:54 PM 31.1753 -102.5922 282° West 334 384 38,000  Level Albuquerque Center
Thu 05:16:56 PM 31.1958 -102.6986 283° West 335 386 38,000  Level Albuquerque Center
Thu 05:17:58 PM 31.2144 -102.8050 282° West 335 386 38,000  Level Albuquerque Center
Thu 05:19:00 PM 31.2353 -102.9119 283° West 338 389 38,000  Level Albuquerque Center
Thu 05:20:02 PM 31.2550 -103.0189 282° West 336 387 38,000  Level Albuquerque Center
Thu 05:21:04 PM 31.2750 -103.1253 282° West 336 387 38,000  Level Albuquerque Center
Thu 05:22:07 PM 31.2967 -103.2542 281° West 337 388 38,000  Level Albuquerque Center
Thu 05:23:09 PM 31.3186 -103.3597 284° West 335 386 38,000  Level Albuquerque Center
Thu 05:24:11 PM 31.3367 -103.4658 281° West 334 384 38,000  Level Albuquerque Center
Thu 05:25:13 PM 31.3550 -103.5717 281° West 333 383 38,000  Level Albuquerque Center
Thu 05:26:15 PM 31.3739 -103.6778 282° West 333 383 38,000  Level Albuquerque Center
Thu 05:27:17 PM 31.3933 -103.7864 282° West 336 387 38,000  Level Albuquerque Center
Thu 05:28:19 PM 31.4128 -103.8950 282° West 339 390 38,000  Level Albuquerque Center
Thu 05:29:21 PM 31.4392 -104.0267 283° West 344 396 38,000  Level Albuquerque Center
Thu 05:30:23 PM 31.4586 -104.1358 282° West 346 398 38,000  Level Albuquerque Center
Thu 05:31:25 PM 31.4772 -104.2461 281° West 346 398 38,000  Level Albuquerque Center
Thu 05:32:27 PM 31.4972 -104.3575 282° West 348 400 38,000  Level Albuquerque Center
Thu 05:33:29 PM 31.5161 -104.4708 281° West 351 404 38,000  Level Albuquerque Center
Thu 05:34:31 PM 31.5394 -104.6047 282° West 352 405 38,000  Level Albuquerque Center
Thu 05:35:33 PM 31.5578 -104.7136 281° West 349 402 38,000  Level Albuquerque Center
Thu 05:36:35 PM 31.5761 -104.8214 281° West 345 397 38,000  Level Albuquerque Center
Thu 05:37:37 PM 31.5942 -104.9283 281° West 339 390 38,000  Level Albuquerque Center
Thu 05:38:39 PM 31.6125 -105.0358 281° West 339 390 38,000  Level Albuquerque Center
Thu 05:39:41 PM 31.6353 -105.1667 282° West 343 395 38,000  Level Albuquerque Center
Thu 05:40:44 PM 31.6528 -105.2750 281° West 343 395 38,000  Level Albuquerque Center
Thu 05:41:46 PM 31.6703 -105.3883 280° West 352 405 38,000  Level Albuquerque Center
Thu 05:42:48 PM 31.6964 -105.4972 286° West 349 402 38,000  Level Albuquerque Center
Thu 05:43:50 PM 31.7269 -105.6061 288° West 352 405 38,000  Level Albuquerque Center
Thu 05:44:52 PM 31.7572 -105.7164 288° West 354 407 38,000  Level Albuquerque Center
Thu 05:45:54 PM 31.7931 -105.8494 288° West 357 411 38,000  Level Albuquerque Center
Thu 05:46:56 PM 31.8225 -105.9597 287° West 355 409 38,000  Level Albuquerque Center
Thu 05:47:58 PM 31.8522 -106.0694 288° West 354 407 38,000  Level Albuquerque Center
Thu 05:49:00 PM 31.8819 -106.1783 288° West 351 404 38,000  Level Albuquerque Center
Thu 05:50:02 PM 31.9128 -106.2894 288° West 356 410 38,000  Level Albuquerque Center
Thu 05:51:04 PM 31.9422 -106.4022 287° West 359 413 38,000  Level Albuquerque Center
Thu 05:52:06 PM 31.9789 -106.5372 288° West 360 414 38,000  Level Albuquerque Center
Thu 05:53:08 PM 32.0089 -106.6494 288° West 360 414 38,000  Level Albuquerque Center
Thu 05:54:10 PM 32.0389 -106.7617 288° West 360 414 38,000  Level Albuquerque Center
Thu 05:55:12 PM 32.0678 -106.8747 287° West 359 413 38,000  Level Albuquerque Center
Thu 05:56:14 PM 32.0983 -106.9889 288° West 363 418 38,000  Level Albuquerque Center
Thu 05:57:16 PM 32.1267 -107.1033 286° West 363 418 38,000  Level Albuquerque Center
Thu 05:58:18 PM 32.1572 -107.2181 287° West 363 418 38,000  Level Albuquerque Center
Thu 05:59:20 PM 32.1889 -107.3514 286° West 365 420 38,000  Level Albuquerque Center
Thu 06:00:22 PM 32.2164 -107.4658 286° West 365 420 38,000  Level Albuquerque Center
Thu 06:01:24 PM 32.2486 -107.5867 288° West 362 417 38,000  Level Albuquerque Center
Thu 06:02:26 PM 32.2775 -107.7011 287° West 362 417 38,000  Level Albuquerque Center
Thu 06:03:28 PM 32.3072 -107.8147 287° West 362 417 38,000  Level Albuquerque Center
Thu 06:04:30 PM 32.3347 -107.9264 286° West 355 409 38,000  Level Albuquerque Center
Thu 06:05:32 PM 32.3625 -108.0386 286° West 356 410 38,000  Level Albuquerque Center
Thu 06:06:34 PM 32.3964 -108.1742 287° West 357 411 38,000  Level Albuquerque Center
Thu 06:07:36 PM 32.4247 -108.2864 287° West 356 410 38,000  Level Albuquerque Center
Thu 06:08:39 PM 32.4539 -108.4075 286° West 359 413 38,000  Level Albuquerque Center
Thu 06:09:41 PM 32.4819 -108.5217 286° West 363 418 38,000  Level Albuquerque Center
Thu 06:10:43 PM 32.5108 -108.6361 287° West 364 419 38,000  Level Albuquerque Center
Thu 06:11:45 PM 32.5386 -108.7528 286° West 367 422 38,000  Level Albuquerque Center
Thu 06:12:47 PM 32.5664 -108.8686 286° West 368 423 38,000  Level Albuquerque Center
Thu 06:13:49 PM 32.6003 -109.0111 286° West 373 429 38,000  Level Albuquerque Center
Thu 06:14:51 PM 32.6294 -109.1292 286° West 374 430 38,000  Level Albuquerque Center
Thu 06:15:53 PM 32.6575 -109.2472 286° West 371 427 38,000  Level Albuquerque Center
Thu 06:16:55 PM 32.6844 -109.3639 285° West 368 423 38,000  Level Albuquerque Center
Thu 06:17:57 PM 32.7131 -109.4808 286° West 369 425 38,000  Level Albuquerque Center
Thu 06:18:59 PM 32.7403 -109.5975 286° West 369 425 38,000  Level Albuquerque Center
Thu 06:20:01 PM 32.7728 -109.7381 285° West 369 425 38,000  Level Albuquerque Center
Thu 06:21:03 PM 32.8011 -109.8550 286° West 370 426 38,000  Level Albuquerque Center
Thu 06:22:05 PM 32.8261 -109.9719 284° West 368 423 38,000  Level Albuquerque Center
Thu 06:23:07 PM 32.8569 -110.0897 287° West 373 429 38,000  Level Albuquerque Center
Thu 06:24:09 PM 32.8856 -110.2072 286° West 374 430 38,000  Level Albuquerque Center
Thu 06:25:11 PM 32.9164 -110.3472 285° West 369 425 38,000  Level Albuquerque Center
Thu 06:26:13 PM 32.9447 -110.4656 286° West 372 428 38,000  Level Albuquerque Center
Thu 06:27:15 PM 32.9700 -110.5850 284° West 375 432 38,000  Level Albuquerque Center
Thu 06:28:17 PM 33.0000 -110.7136 286° West 377 434 38,000  Level Albuquerque Center
Thu 06:29:19 PM 33.0269 -110.8344 285° West 378 435 38,000  Level Albuquerque Center
Thu 06:30:21 PM 33.0531 -110.9550 285° West 376 433 38,000  Level Albuquerque Center
Thu 06:31:23 PM 33.0811 -111.0756 286° West 377 434 38,000  Level Albuquerque Center
Thu 06:32:26 PM 33.1131 -111.2222 285° West 381 438 38,000  Level Albuquerque Center
Thu 06:33:28 PM 33.1403 -111.3461 285° West 385 443 38,000  Level Albuquerque Center
Thu 06:34:30 PM 33.1672 -111.4700 285° West 386 444 38,000  Level Albuquerque Center
Thu 06:35:32 PM 33.1939 -111.5931 285° West 383 441 38,000  Level Albuquerque Center
Thu 06:36:34 PM 33.2206 -111.7172 284° West 385 443 38,000  Level Albuquerque Center
Thu 06:37:36 PM 33.2472 -111.8406 285° West 383 441 38,000 -48 Level Albuquerque Center
Thu 06:38:38 PM 33.2739 -111.9625 285° West 380 437 37,900  Descending Albuquerque Center
Thu 06:39:40 PM 33.2997 -112.0842 284° West 378 435 38,000 48 Climbing Albuquerque Center
Thu 06:40:42 PM 33.3297 -112.2303 284° West 377 434 38,000  Level Albuquerque Center
Thu 06:41:44 PM 33.3556 -112.3533 284° West 379 436 38,000  Level Albuquerque Center
Thu 06:42:46 PM 33.3822 -112.4775 284° West 383 441 38,000  Level Albuquerque Center
Thu 06:43:48 PM 33.4078 -112.6044 284° West 387 445 38,000  Level Albuquerque Center
Thu 06:44:50 PM 33.4336 -112.7306 284° West 389 448 38,000  Level Albuquerque Center
Thu 06:45:52 PM 33.4628 -112.8558 286° West 391 450 38,000  Level Albuquerque Center
Thu 06:46:54 PM 33.5150 -112.9972 294° West 391 450 38,000  Level Albuquerque Center
Thu 06:47:56 PM 33.5569 -113.1119 294° West 383 441 38,000  Level Albuquerque Center
Thu 06:48:58 PM 33.5989 -113.2314 293° West 386 444 38,000  Level Albuquerque Center
Thu 06:50:00 PM 33.6406 -113.3506 293° West 385 443 38,000  Level Albuquerque Center
Thu 06:51:02 PM 33.6825 -113.4664 294° West 381 438 38,000  Level Albuquerque Center
Thu 06:52:04 PM 33.7236 -113.5831 293° West 380 437 38,000  Level Albuquerque Center
Thu 06:53:07 PM 33.7717 -113.7217 293° West 377 434 38,000  Level Albuquerque Center
Thu 06:54:09 PM 33.8119 -113.8378 293° West 375 432 38,000  Level Albuquerque Center
Thu 06:55:11 PM 33.8425 -113.9572 287° West 383 441 38,000  Level Albuquerque Center
Thu 06:56:13 PM 33.8639 -114.0808 282° West 383 441 38,000  Level Albuquerque Center
Thu 06:57:15 PM 33.8822 -114.2064 280° West 381 438 38,000  Level Albuquerque Center
Thu 06:58:17 PM 33.9047 -114.3508 281° West 380 437 38,000  Level Albuquerque Center
Thu 06:59:18 PM 33.9225 -114.4639 281° West 385 443 38,000  Level Los Angeles Center
Thu 07:00:20 PM 33.9447 -114.6144 280° West 382 440 38,000  Level Los Angeles Center
Thu 07:01:22 PM 33.9644 -114.7406 281° West 383 441 38,000  Level Los Angeles Center
Thu 07:02:24 PM 33.9825 -114.8678 280° West 386 444 38,000  Level Los Angeles Center
Thu 07:03:27 PM 34.0014 -114.9969 280° West 390 449 38,000  Level Los Angeles Center
Thu 07:04:29 PM 34.0206 -115.1258 280° West 393 452 38,000  Level Los Angeles Center
Thu 07:05:31 PM 34.0436 -115.2822 280° West 396 456 38,000  Level Los Angeles Center
Thu 07:06:33 PM 34.0622 -115.4133 280° West 399 459 38,000  Level Los Angeles Center
Thu 07:07:35 PM 34.0803 -115.5422 280° West 394 453 38,000  Level Los Angeles Center
Thu 07:08:37 PM 34.0981 -115.6714 279° West 392 451 38,000  Level Los Angeles Center
Thu 07:09:39 PM 34.1069 -115.8022 275° West 392 451 38,000 -242 Level Los Angeles Center
Thu 07:10:41 PM 34.0878 -115.9336 260° West 399 459 37,500 -1,790 Descending Los Angeles Center
Thu 07:11:43 PM 34.0644 -116.0897 260° West 396 456 34,300 -2,832 Descending Los Angeles Center
Thu 07:12:46 PM 34.0450 -116.2225 260° West 403 464 31,600 -2,400 Descending Los Angeles Center
Thu 07:13:48 PM 34.0244 -116.3619 260° West 420 483 29,300 -2,226 Descending Los Angeles Center
Thu 07:14:50 PM 34.0044 -116.4964 260° West 409 471 27,000 -2,129 Descending Los Angeles Center
Thu 07:15:52 PM 33.9942 -116.6250 265° West 391 450 24,900 -2,226 Descending Los Angeles Center
Thu 07:16:54 PM 33.9822 -116.7733 264° West 375 432 22,400 -2,177 Descending Los Angeles Center
Thu 07:17:56 PM 33.9667 -116.9000 262° West 358 412 20,400 -1,918 Descending Southern California TRACON
Thu 07:18:56 PM 33.9667 -117.0167 270° West 343 395 18,500 -1,700 Descending Southern California TRACON
Thu 07:19:56 PM 33.9500 -117.1333 260° West 348 400 17,000 -1,050 Descending Southern California TRACON
Thu 07:20:56 PM 33.9500 -117.2500 270° West 338 389 16,400 -1,148 Descending Southern California TRACON
Thu 07:21:51 PM 33.9333 -117.3500 259° West 341 392 14,800 -1,934 Descending Southern California TRACON
Thu 07:22:57 PM 33.9667 -117.4667 289° West 337 388 12,500 -1,762 Descending Southern California TRACON
Thu 07:23:57 PM 34.0000 -117.5667 292° West 305 351 11,100 -1,250 Descending Southern California TRACON
Thu 07:24:57 PM 34.0333 -117.6500 296° West 328 377 10,000 -942 Descending Southern California TRACON
Thu 07:25:58 PM 34.0167 -117.7500 259° West 276 318 9,200 -1,041 Descending Southern California TRACON
Thu 07:26:58 PM 34.0000 -117.8500 259° West 274 315 7,900 -1,190 Descending Southern California TRACON
Thu 07:27:59 PM 34.0000 -117.9333 270° West 270 311 6,800 -1,091 Descending Southern California TRACON
Thu 07:28:59 PM 33.9833 -118.0333 259° West 265 305 5,700 -1,000 Descending Southern California TRACON
Thu 07:29:59 PM 33.9833 -118.1167 270° West 260 299 4,800 -940 Descending Southern California TRACON
Thu 07:30:22 PM 33.9789 -118.1439 259° West 261 300 4,400 -1,200 Descending Los Angeles Center
Thu 07:31:24 PM 33.9714 -118.2203 263° West 241 277 3,100 -1,161 Descending Los Angeles Center
Thu 07:32:26 PM 33.9633 -118.2886 262° West 224 258 2,000 -968 Descending Los Angeles Center
Thu 07:33:28 PM 33.9589 -118.3414 264° West 184 212 1,100 -726 Descending Los Angeles Center
Thu 07:34:30 PM 33.9556 -118.3828 264° West 149 171 500 -484 Descending Los Angeles Center
Thu 07:35:32 PM 33.9492 -118.4300 261° West 138 159 100 -387 Descending Los Angeles Center
Thu 07:37:00 PM 33.9425 -118.4081 90° East  Level Estimated

Login

Don't have an account? Register now (free) for customized features, flight alerts, and more!